PWSweather.com
Personal Weather Stations
Station Observations
MAGOO
Kiefer, OK 74041

Kiefer, OK 74041

Lat: 35.9417305, Lon: -96.03782654

Elevation: 699

Station Type: WMR100N

Latest ConditionsUpdated 2:05:00 AM CDT Saturday, Nov 1, 2014
Currently Today's Max Today's Min Today's Average
Temperature 30.2°F-1.0°C 30.6°F-0.8°C 29.4°F-1.4°C 29.9°F-1.2°C
Dew Point 9.0°F-12.8°C 11.1°F-11.6°C 8.1°F-13.3°C 9.6°F-12.4°C
Winds 2.0 mph NE3.2 kmh NE 3.0 mph NE4.8 kmh NE - 1.0 mph 1.6 kmh
Wind Gusts 3.0 mph4.8 kmh 4.0 mph6.4 kmh - -
Humidity 68% 72% 66% 69%
Pressure 30.39 in1029.1 mb 30.42 in1030.1 mb 30.39 in1029.1 mb -
Hour Temp Dew Point Humidity Winds Wind Gusts Pressure Precip Precip Rate Daily Precip Total
02:05 AM 30.2°F-1.0°C 9.0°F-12.8°C 68% 2.0 mph NE3.2 kmh NE 3.0 mph4.8 kmh 30.39 in1029.1 mb 0.00 in0.0 mm 0.00 in/hr0.0 mm/hr 0.00 in0.0 mm
02:00 AM 30.0°F-1.1°C 9.4°F-12.6°C 69% 3.0 mph NE4.8 kmh NE 4.0 mph6.4 kmh 30.39 in1029.1 mb 0.00 in0.0 mm 0.00 in/hr0.0 mm/hr 0.00 in0.0 mm
01:55 AM 29.9°F-1.2°C 10.1°F-12.2°C 70% 1.0 mph NNE1.6 kmh NNE 2.0 mph3.2 kmh 30.39 in1029.1 mb 0.00 in0.0 mm 0.00 in/hr0.0 mm/hr 0.00 in0.0 mm
01:50 AM 29.7°F-1.3°C 10.5°F-11.9°C 71% 2.0 mph NE3.2 kmh NE 4.0 mph6.4 kmh 30.39 in1029.1 mb 0.00 in0.0 mm 0.00 in/hr0.0 mm/hr 0.00 in0.0 mm
01:45 AM 29.4°F-1.4°C 10.9°F-11.7°C 72% 2.0 mph NE3.2 kmh NE 4.0 mph6.4 kmh 30.39 in1029.1 mb 0.00 in0.0 mm 0.00 in/hr0.0 mm/hr 0.00 in0.0 mm
01:40 AM 29.4°F-1.4°C 10.9°F-11.7°C 72% 2.0 mph ENE3.2 kmh ENE 3.0 mph4.8 kmh 30.39 in1029.1 mb 0.00 in0.0 mm 0.00 in/hr0.0 mm/hr 0.00 in0.0 mm
01:35 AM 29.4°F-1.4°C 10.9°F-11.7°C 72% 2.0 mph E3.2 kmh E 3.0 mph4.8 kmh 30.39 in1029.1 mb 0.00 in0.0 mm 0.00 in/hr0.0 mm/hr 0.00 in0.0 mm
01:30 AM 29.4°F-1.4°C 10.9°F-11.7°C 72% Calm Calm 1.0 mph1.6 kmh 30.39 in1029.1 mb 0.00 in0.0 mm 0.00 in/hr0.0 mm/hr 0.00 in0.0 mm
01:25 AM 29.4°F-1.4°C 11.1°F-11.6°C 72% Calm Calm 2.0 mph3.2 kmh 30.39 in1029.1 mb 0.00 in0.0 mm 0.00 in/hr0.0 mm/hr 0.00 in0.0 mm
01:20 AM 29.6°F-1.3°C 11.1°F-11.6°C 72% 1.0 mph 1.6 kmh 2.0 mph3.2 kmh 30.40 in1029.5 mb 0.00 in0.0 mm 0.00 in/hr0.0 mm/hr 0.00 in0.0 mm
01:15 AM 29.6°F-1.3°C 11.1°F-11.6°C 72% 2.0 mph 3.2 kmh 2.0 mph3.2 kmh 30.42 in1030.1 mb 0.00 in0.0 mm 0.00 in/hr0.0 mm/hr 0.00 in0.0 mm
01:10 AM 29.6°F-1.3°C 10.4°F-12.0°C 71% 1.0 mph 1.6 kmh 2.0 mph3.2 kmh 30.42 in1030.1 mb 0.00 in0.0 mm 0.00 in/hr0.0 mm/hr 0.00 in0.0 mm
01:05 AM 29.6°F-1.3°C 9.9°F-12.3°C 70% 1.0 mph 1.6 kmh 2.0 mph3.2 kmh 30.42 in1030.1 mb 0.00 in0.0 mm 0.00 in/hr0.0 mm/hr 0.00 in0.0 mm
01:00 AM 29.8°F-1.2°C 9.7°F-12.4°C 69% Calm Calm -- 30.42 in1030.1 mb 0.00 in0.0 mm 0.00 in/hr0.0 mm/hr 0.00 in0.0 mm
12:55 AM 29.8°F-1.2°C 9.4°F-12.6°C 69% Calm Calm -- 30.42 in1030.1 mb 0.00 in0.0 mm 0.00 in/hr0.0 mm/hr 0.00 in0.0 mm
12:50 AM 29.9°F-1.2°C 9.0°F-12.8°C 68% Calm Calm -- 30.42 in1030.1 mb 0.00 in0.0 mm 0.00 in/hr0.0 mm/hr 0.00 in0.0 mm
12:45 AM 30.0°F-1.1°C 8.9°F-12.8°C 68% Calm Calm -- 30.42 in1030.1 mb 0.00 in0.0 mm 0.00 in/hr0.0 mm/hr 0.00 in0.0 mm
12:40 AM 30.1°F-1.1°C 8.5°F-13.1°C 67% Calm Calm -- 30.42 in1030.1 mb 0.00 in0.0 mm 0.00 in/hr0.0 mm/hr 0.00 in0.0 mm
12:35 AM 30.5°F-0.8°C 8.5°F-13.1°C 66% Calm Calm -- 30.42 in1030.1 mb 0.00 in0.0 mm 0.00 in/hr0.0 mm/hr 0.00 in0.0 mm
12:30 AM 30.6°F-0.8°C 8.4°F-13.1°C 66% Calm Calm 2.0 mph3.2 kmh 30.42 in1030.1 mb 0.00 in0.0 mm 0.00 in/hr0.0 mm/hr 0.00 in0.0 mm
12:25 AM 30.6°F-0.8°C 8.6°F-13.0°C 66% 2.0 mph N3.2 kmh N 3.0 mph4.8 kmh 30.42 in1030.1 mb 0.00 in0.0 mm 0.00 in/hr0.0 mm/hr 0.00 in0.0 mm
12:20 AM 30.4°F-0.9°C 8.8°F-12.9°C 67% 2.0 mph N3.2 kmh N 4.0 mph6.4 kmh 30.42 in1030.1 mb 0.00 in0.0 mm 0.00 in/hr0.0 mm/hr 0.00 in0.0 mm
12:15 AM 30.3°F-0.9°C 8.8°F-12.9°C 67% 1.0 mph NNE1.6 kmh NNE 3.0 mph4.8 kmh 30.42 in1030.1 mb 0.00 in0.0 mm 0.00 in/hr0.0 mm/hr 0.00 in0.0 mm
12:10 AM 30.3°F-0.9°C 8.5°F-13.1°C 67% 2.0 mph NNE3.2 kmh NNE 3.0 mph4.8 kmh 30.42 in1030.1 mb 0.00 in0.0 mm 0.00 in/hr0.0 mm/hr 0.00 in0.0 mm
12:05 AM 30.3°F-0.9°C 8.1°F-13.3°C 66% 1.0 mph NNE1.6 kmh NNE 2.0 mph3.2 kmh 30.42 in1030.1 mb 0.00 in0.0 mm 0.00 in/hr0.0 mm/hr 0.00 in0.0 mm
12:00 AM 30.5°F-0.8°C 8.2°F-13.2°C 66% Calm Calm -- 30.42 in1030.1 mb 0.00 in0.0 mm 0.00 in/hr0.0 mm/hr 0.00 in0.0 mm